Time;durP1;ratioP1;P1;durP2;ratioP2;P2;SDS_P1;SDS_P2;PMS_P1;PMS_P2;Temp;Humidity;BMP_temperature;BMP_pressure;BME280_temperature;BME280_humidity;BME280_pressure;Samples;Min_cycle;Max_cycle;Signal;HPM_P1;HPM_P2
2022/01/31 00:00:00;;;;;;;30.92;12.50;;;5.10;70.50;;;;;;5109303;27;20199;-72
2022/01/31 00:02:30;;;;;;;21.65;9.55;;;5.00;70.50;;;;;;5113107;27;20323;-72
2022/01/31 00:04:58;;;;;;;19.52;9.20;;;5.00;70.70;;;;;;5119975;27;20239;-72
2022/01/31 00:07:26;;;;;;;24.05;9.07;;;5.10;70.80;;;;;;5104792;27;20232;-72
2022/01/31 00:09:53;;;;;;;21.02;8.07;;;5.10;70.80;;;;;;5117576;27;20262;-72
2022/01/31 00:12:24;;;;;;;18.83;6.78;;;5.10;70.80;;;;;;5101703;27;20209;-72
2022/01/31 00:14:54;;;;;;;21.83;6.35;;;5.00;70.80;;;;;;5118850;27;20205;-73
2022/01/31 00:17:22;;;;;;;19.10;5.95;;;5.00;70.80;;;;;;5115492;27;20298;-70
2022/01/31 00:19:52;;;;;;;22.17;7.20;;;5.00;70.90;;;;;;5112348;27;20198;-73
2022/01/31 00:22:20;;;;;;;77.40;26.00;;;5.00;70.90;;;;;;5112394;27;20315;-73
2022/01/31 00:24:49;;;;;;;60.35;19.95;;;5.00;70.90;;;;;;5117157;27;20206;-70
2022/01/31 00:27:17;;;;;;;50.97;15.23;;;5.00;71.00;;;;;;5116238;27;20226;-70
2022/01/31 00:29:45;;;;;;;29.02;12.10;;;5.00;71.00;;;;;;5114077;27;20276;-71
2022/01/31 00:32:13;;;;;;;50.63;16.63;;;5.00;71.00;;;;;;5094713;27;20226;-70
2022/01/31 00:34:41;;;;;;;40.33;12.68;;;5.00;71.10;;;;;;5096087;27;20281;-72
2022/01/31 00:37:11;;;;;;;46.67;17.30;;;5.00;71.10;;;;;;5096514;27;20221;-73
2022/01/31 00:39:38;;;;;;;54.13;19.65;;;5.00;71.20;;;;;;5095379;28;20441;-73
2022/01/31 00:42:07;;;;;;;53.10;19.23;;;5.00;71.20;;;;;;5092017;27;21021;-71
2022/01/31 00:44:44;;;;;;;39.15;12.65;;;5.10;71.30;;;;;;5110628;27;20953;-72
2022/01/31 00:47:19;;;;;;;23.60;7.22;;;5.10;71.30;;;;;;5095156;27;20241;-70
2022/01/31 00:49:54;;;;;;;20.80;7.20;;;5.10;71.20;;;;;;5096048;27;20964;-70
2022/01/31 00:52:23;;;;;;;17.70;6.35;;;5.10;71.30;;;;;;5095500;27;20202;-71
2022/01/31 00:54:51;;;;;;;20.35;7.22;;;5.10;71.30;;;;;;5115386;27;20507;-71
2022/01/31 00:57:19;;;;;;;17.15;5.30;;;5.10;71.40;;;;;;5107524;27;20275;-71
2022/01/31 00:59:50;;;;;;;17.95;5.68;;;5.10;71.40;;;;;;5115827;27;20198;-71
2022/01/31 01:02:19;;;;;;;25.55;6.25;;;5.10;71.40;;;;;;5093350;27;20236;-71
2022/01/31 01:04:47;;;;;;;18.13;5.25;;;5.10;71.60;;;;;;5097651;27;20210;-73
2022/01/31 01:07:15;;;;;;;16.75;4.97;;;5.10;71.60;;;;;;5114715;27;20961;-73
2022/01/31 01:09:45;;;;;;;13.30;4.80;;;5.10;71.60;;;;;;5112129;27;20230;-70
2022/01/31 01:12:14;;;;;;;14.65;5.75;;;5.10;71.70;;;;;;5115164;27;20224;-73
2022/01/31 01:14:43;;;;;;;21.70;5.72;;;5.10;71.70;;;;;;5095843;27;20202;-72
2022/01/31 01:17:12;;;;;;;17.85;6.20;;;5.10;71.80;;;;;;5090179;28;20242;-70
2022/01/31 01:19:40;;;;;;;21.08;5.82;;;5.10;71.80;;;;;;5109641;27;20284;-70
2022/01/31 01:22:08;;;;;;;18.30;5.20;;;5.10;71.90;;;;;;5100920;27;20787;-70
2022/01/31 01:24:36;;;;;;;15.13;4.78;;;5.10;71.90;;;;;;5112915;27;20783;-72
2022/01/31 01:27:08;;;;;;;16.00;5.20;;;5.10;71.90;;;;;;5119917;27;20264;-70
2022/01/31 01:29:37;;;;;;;12.75;4.85;;;5.10;71.90;;;;;;5096571;27;20221;-70
2022/01/31 01:32:06;;;;;;;17.35;5.10;;;5.10;71.90;;;;;;5093916;27;20217;-70
2022/01/31 01:34:35;;;;;;;11.80;4.72;;;5.10;72.10;;;;;;5099047;28;20198;-70
2022/01/31 01:37:03;;;;;;;18.25;5.47;;;5.10;72.00;;;;;;5093847;28;20329;-71
2022/01/31 01:39:33;;;;;;;18.55;5.63;;;5.10;72.00;;;;;;5100298;27;20213;-70
2022/01/31 01:42:02;;;;;;;15.93;6.07;;;5.10;72.10;;;;;;5099840;28;20208;-70
2022/01/31 01:44:44;;;;;;;10.82;4.78;;;5.20;72.10;;;;;;5090837;28;20205;-73
2022/01/31 01:47:15;;;;;;;14.93;5.93;;;5.10;72.10;;;;;;5102526;27;20325;-73
2022/01/31 01:49:43;;;;;;;19.77;5.28;;;5.20;72.20;;;;;;5097411;28;20269;-72
2022/01/31 01:52:13;;;;;;;17.92;5.68;;;5.20;72.20;;;;;;5094193;28;20216;-70
2022/01/31 01:54:41;;;;;;;10.73;4.30;;;5.30;72.20;;;;;;5113696;28;20197;-72
2022/01/31 01:57:09;;;;;;;14.85;4.55;;;5.30;72.20;;;;;;5098390;28;20229;-72
2022/01/31 01:59:40;;;;;;;14.98;5.50;;;5.30;72.20;;;;;;5103428;28;20857;-72
2022/01/31 02:02:36;;;;;;;10.73;4.75;;;5.30;72.20;;;;;;5095609;28;20238;-72
2022/01/31 02:05:06;;;;;;;16.95;5.32;;;5.30;72.10;;;;;;5104344;28;20198;-72
2022/01/31 02:07:39;;;;;;;25.05;5.30;;;5.30;72.10;;;;;;5095140;28;20241;-72
2022/01/31 02:10:11;;;;;;;15.38;4.82;;;5.30;72.10;;;;;;5095067;28;20228;-72
2022/01/31 02:12:55;;;;;;;14.85;5.80;;;5.30;72.10;;;;;;5096067;28;20198;-72
2022/01/31 02:15:45;;;;;;;15.00;4.85;;;5.30;72.10;;;;;;5113935;27;20240;-73
2022/01/31 02:18:30;;;;;;;12.60;5.03;;;5.30;72.20;;;;;;5096795;28;20213;-72
2022/01/31 02:21:03;;;;;;;19.33;5.82;;;5.30;72.20;;;;;;5093989;28;20944;-71
2022/01/31 02:23:34;;;;;;;18.23;5.55;;;5.30;72.20;;;;;;5096264;28;20313;-74
2022/01/31 02:26:20;;;;;;;15.77;5.05;;;5.30;72.20;;;;;;5115180;28;20326;-74
2022/01/31 02:29:01;;;;;;;17.30;6.25;;;5.30;72.30;;;;;;5097102;28;20251;-72
2022/01/31 02:31:29;;;;;;;13.15;5.60;;;5.20;72.20;;;;;;5099360;28;20761;-72
2022/01/31 02:33:57;;;;;;;18.65;5.68;;;5.20;72.30;;;;;;5095765;28;20659;-72
2022/01/31 02:36:27;;;;;;;17.42;6.18;;;5.20;72.30;;;;;;5094755;28;20213;-72
2022/01/31 02:38:55;;;;;;;16.63;6.57;;;5.20;72.30;;;;;;5115304;28;20206;-72
2022/01/31 02:41:23;;;;;;;13.32;6.25;;;5.20;72.40;;;;;;5098231;28;20198;-72
2022/01/31 02:43:54;;;;;;;20.15;7.47;;;5.10;72.20;;;;;;5095026;28;20207;-71
2022/01/31 02:46:27;;;;;;;18.02;6.10;;;5.10;72.30;;;;;;5093610;28;20225;-70
2022/01/31 02:48:58;;;;;;;18.05;6.63;;;5.10;72.40;;;;;;5098238;28;20756;-70
2022/01/31 02:51:31;;;;;;;20.45;6.88;;;5.00;72.50;;;;;;5115030;28;20846;-70
2022/01/31 02:53:59;;;;;;;24.33;7.45;;;5.00;72.40;;;;;;5094734;28;20198;-71
2022/01/31 02:56:27;;;;;;;17.92;6.75;;;5.00;72.50;;;;;;5117981;28;20587;-71
2022/01/31 02:58:55;;;;;;;16.88;6.53;;;5.00;72.70;;;;;;5105112;27;20212;-71
2022/01/31 03:01:23;;;;;;;19.63;6.50;;;5.00;72.80;;;;;;5102730;27;20252;-71
2022/01/31 03:03:52;;;;;;;16.73;6.82;;;5.00;72.90;;;;;;5098311;27;20672;-71
2022/01/31 03:06:20;;;;;;;15.55;5.80;;;5.00;72.80;;;;;;5119519;27;20220;-71
2022/01/31 03:08:49;;;;;;;19.50;6.05;;;5.00;72.90;;;;;;5100100;27;20844;-71
2022/01/31 03:11:24;;;;;;;16.42;6.55;;;5.10;72.90;;;;;;5116558;27;20205;-71
2022/01/31 03:13:58;;;;;;;15.20;6.75;;;5.10;72.90;;;;;;5113175;27;20194;-71
2022/01/31 03:16:26;;;;;;;17.77;5.95;;;5.10;72.90;;;;;;5099020;27;20240;-71
2022/01/31 03:19:09;;;;;;;17.38;6.65;;;5.10;72.90;;;;;;5122646;27;20240;-71
2022/01/31 03:21:38;;;;;;;17.88;6.40;;;5.10;72.80;;;;;;5107243;27;20270;-71
2022/01/31 03:24:09;;;;;;;13.95;6.07;;;5.10;73.00;;;;;;5097659;27;20778;-71
2022/01/31 03:26:37;;;;;;;15.02;5.63;;;5.10;73.00;;;;;;5117272;27;20214;-71
2022/01/31 03:29:06;;;;;;;14.32;6.30;;;5.10;72.90;;;;;;5118735;27;20201;-71
2022/01/31 03:31:34;;;;;;;13.88;6.35;;;5.10;73.10;;;;;;5115773;27;20230;-71
2022/01/31 03:34:03;;;;;;;12.23;5.78;;;5.10;73.10;;;;;;5113078;27;20194;-71
2022/01/31 03:36:31;;;;;;;13.77;6.63;;;5.10;73.10;;;;;;5103222;27;20226;-71
2022/01/31 03:39:00;;;;;;;22.00;6.47;;;5.10;73.20;;;;;;5106053;27;20756;-71
2022/01/31 03:41:31;;;;;;;22.55;6.90;;;5.10;73.30;;;;;;5094608;27;20912;-72
2022/01/31 03:43:59;;;;;;;17.27;7.03;;;5.10;73.20;;;;;;5095573;27;20820;-71
2022/01/31 03:46:28;;;;;;;16.48;6.38;;;5.10;73.10;;;;;;5094824;27;20282;-71
2022/01/31 03:48:56;;;;;;;21.83;7.03;;;5.10;73.10;;;;;;5095976;27;20217;-72
2022/01/31 03:51:37;;;;;;;16.92;6.97;;;5.10;73.10;;;;;;5098622;27;20210;-73
2022/01/31 03:54:06;;;;;;;20.65;6.32;;;5.10;73.20;;;;;;5103212;27;20826;-71
2022/01/31 03:56:37;;;;;;;16.88;6.85;;;5.10;73.30;;;;;;5097347;27;20992;-71
2022/01/31 03:59:29;;;;;;;16.30;5.65;;;5.00;73.50;;;;;;5114412;27;20211;-71
2022/01/31 04:01:58;;;;;;;18.38;6.40;;;5.10;73.40;;;;;;5092592;27;20253;-71
2022/01/31 04:04:26;;;;;;;20.38;6.40;;;5.10;73.40;;;;;;5113796;27;20216;-71
2022/01/31 04:06:54;;;;;;;16.27;7.15;;;5.10;73.40;;;;;;5115401;27;20721;-71
2022/01/31 04:09:22;;;;;;;15.77;6.40;;;5.10;73.50;;;;;;5120526;27;20197;-71
2022/01/31 04:11:52;;;;;;;15.77;6.07;;;5.10;73.50;;;;;;5110727;27;20639;-71
2022/01/31 04:14:20;;;;;;;16.65;6.45;;;5.10;73.70;;;;;;5110210;27;20226;-71
2022/01/31 04:16:48;;;;;;;14.00;6.00;;;5.10;73.70;;;;;;5113787;27;20229;-71
2022/01/31 04:19:16;;;;;;;14.15;6.55;;;5.10;73.70;;;;;;5115707;27;20297;-71
2022/01/31 04:21:43;;;;;;;22.60;6.38;;;5.10;73.70;;;;;;5114515;27;20296;-71
2022/01/31 04:24:18;;;;;;;15.60;7.68;;;5.10;73.80;;;;;;5113020;27;20214;-71
2022/01/31 04:26:56;;;;;;;15.90;6.72;;;5.10;73.90;;;;;;5114694;27;20260;-71
2022/01/31 04:29:27;;;;;;;18.17;7.35;;;5.10;73.90;;;;;;5113816;27;20531;-71
2022/01/31 04:31:55;;;;;;;20.58;6.95;;;5.10;73.80;;;;;;5115163;27;20221;-71
2022/01/31 04:34:23;;;;;;;15.25;7.55;;;5.20;74.00;;;;;;5111791;27;20285;-71
2022/01/31 04:36:52;;;;;;;25.05;7.35;;;5.20;74.00;;;;;;5119748;27;20316;-71
2022/01/31 04:39:20;;;;;;;19.27;7.07;;;5.20;73.90;;;;;;5114736;27;20703;-71
2022/01/31 04:41:49;;;;;;;22.25;8.55;;;5.20;74.00;;;;;;5117057;27;20304;-71
2022/01/31 04:44:18;;;;;;;15.25;6.57;;;5.20;74.00;;;;;;5113490;27;20312;-71
2022/01/31 04:46:49;;;;;;;18.10;7.82;;;5.20;74.00;;;;;;5118202;27;20229;-71
2022/01/31 04:49:18;;;;;;;15.07;7.32;;;5.20;74.00;;;;;;5109979;27;20572;-71
2022/01/31 04:51:46;;;;;;;12.32;5.97;;;5.20;74.10;;;;;;5114057;27;20251;-71
2022/01/31 04:54:14;;;;;;;23.08;7.88;;;5.20;74.10;;;;;;5115827;27;20235;-71
2022/01/31 04:56:43;;;;;;;21.52;7.25;;;5.20;74.00;;;;;;5110590;27;20339;-71
2022/01/31 04:59:11;;;;;;;21.15;7.20;;;5.20;74.20;;;;;;5113536;27;21091;-71
2022/01/31 05:01:42;;;;;;;15.48;6.60;;;5.20;74.10;;;;;;5115695;27;20233;-71
2022/01/31 05:04:11;;;;;;;17.98;6.57;;;5.20;74.10;;;;;;5114705;27;20549;-71
2022/01/31 05:06:41;;;;;;;16.30;7.47;;;5.20;74.30;;;;;;5110460;27;20326;-71
2022/01/31 05:09:11;;;;;;;22.00;7.78;;;5.10;74.20;;;;;;5109737;27;20690;-71
2022/01/31 05:11:39;;;;;;;14.25;6.28;;;5.20;74.30;;;;;;5117802;27;20850;-71
2022/01/31 05:14:07;;;;;;;14.15;7.05;;;5.20;74.30;;;;;;5115682;27;20631;-71
2022/01/31 05:16:34;;;;;;;20.48;6.60;;;5.20;74.50;;;;;;5114292;27;20341;-71
2022/01/31 05:19:03;;;;;;;16.70;6.40;;;5.20;74.40;;;;;;5109704;27;20194;-71
2022/01/31 05:21:32;;;;;;;17.88;6.60;;;5.20;74.50;;;;;;5111024;27;20216;-72
2022/01/31 05:24:00;;;;;;;12.00;6.22;;;5.20;74.50;;;;;;5112297;27;20308;-73
2022/01/31 05:26:28;;;;;;;13.00;6.97;;;5.20;74.50;;;;;;5113421;27;20229;-72
2022/01/31 05:28:56;;;;;;;13.55;6.72;;;5.30;74.50;;;;;;5111809;27;20293;-73
2022/01/31 05:31:24;;;;;;;19.08;7.00;;;5.30;74.30;;;;;;5108686;27;20839;-72
2022/01/31 05:33:52;;;;;;;21.15;7.63;;;5.30;74.40;;;;;;5107565;27;20198;-73
2022/01/31 05:36:21;;;;;;;26.15;7.78;;;5.30;74.70;;;;;;5117407;27;20261;-72
2022/01/31 05:38:50;;;;;;;19.65;8.25;;;5.30;74.40;;;;;;5115043;27;20293;-72
2022/01/31 05:41:20;;;;;;;17.88;7.25;;;5.20;75.10;;;;;;5117883;27;20260;-73
2022/01/31 05:43:48;;;;;;;18.40;8.35;;;5.20;74.60;;;;;;5108268;28;20225;-73
2022/01/31 05:46:17;;;;;;;16.33;6.82;;;5.10;75.30;;;;;;5110893;27;20718;-72
2022/01/31 05:48:45;;;;;;;15.43;7.43;;;5.00;75.00;;;;;;5114061;27;20640;-72
2022/01/31 05:51:16;;;;;;;22.75;7.93;;;5.00;75.00;;;;;;5114183;27;20217;-72
2022/01/31 05:53:44;;;;;;;23.95;7.63;;;5.00;75.30;;;;;;5107360;28;20297;-72
2022/01/31 05:56:15;;;;;;;16.70;7.93;;;4.90;75.30;;;;;;5114573;28;20249;-72
2022/01/31 05:58:44;;;;;;;15.98;7.63;;;4.90;75.40;;;;;;5114854;27;20222;-72
2022/01/31 06:01:13;;;;;;;22.48;8.35;;;4.90;75.40;;;;;;5112013;28;20260;-72
2022/01/31 06:03:41;;;;;;;17.90;8.20;;;4.90;75.90;;;;;;5113863;28;20214;-73
2022/01/31 06:06:09;;;;;;;19.67;7.22;;;4.80;75.40;;;;;;5115413;28;20230;-72
2022/01/31 06:08:37;;;;;;;25.05;8.75;;;4.80;75.70;;;;;;5114825;28;20255;-73
2022/01/31 06:11:05;;;;;;;15.32;7.90;;;4.80;75.90;;;;;;5116491;28;20213;-72
2022/01/31 06:13:34;;;;;;;16.88;7.63;;;4.80;76.40;;;;;;5112486;28;20201;-71
2022/01/31 06:16:02;;;;;;;26.25;8.48;;;4.80;75.90;;;;;;5113755;28;20288;-71
2022/01/31 06:18:30;;;;;;;19.23;8.93;;;4.80;76.20;;;;;;5093061;28;20210;-71
2022/01/31 06:20:58;;;;;;;17.55;8.30;;;4.80;76.30;;;;;;5113392;28;20198;-71
2022/01/31 06:23:26;;;;;;;14.98;7.40;;;4.70;76.10;;;;;;5115694;28;20209;-71
2022/01/31 06:25:54;;;;;;;16.60;8.93;;;4.70;76.10;;;;;;5097328;28;20222;-72
2022/01/31 06:28:23;;;;;;;16.08;9.35;;;4.70;76.30;;;;;;5074014;28;20372;-71
2022/01/31 06:31:00;;;;;;;18.02;7.75;;;4.70;76.60;;;;;;5092402;28;20225;-71
2022/01/31 06:33:29;;;;;;;20.90;8.10;;;4.70;76.30;;;;;;5072531;27;20205;-71
2022/01/31 06:35:57;;;;;;;11.15;6.78;;;4.70;77.10;;;;;;5119166;27;20193;-71
2022/01/31 06:38:25;;;;;;;18.45;7.47;;;4.60;77.20;;;;;;5116552;27;20963;-71
2022/01/31 06:40:53;;;;;;;13.27;6.32;;;4.60;77.10;;;;;;5099265;27;20202;-71
2022/01/31 06:43:21;;;;;;;12.60;6.88;;;4.60;77.00;;;;;;5089933;27;20225;-71
2022/01/31 06:45:49;;;;;;;13.00;6.75;;;4.60;76.80;;;;;;5112724;27;20245;-71
2022/01/31 06:48:18;;;;;;;13.18;7.13;;;4.50;77.70;;;;;;5112794;27;20735;-71
2022/01/31 06:50:46;;;;;;;13.68;5.28;;;4.50;78.20;;;;;;5116150;27;20210;-71
2022/01/31 06:53:16;;;;;;;12.82;5.90;;;4.50;77.80;;;;;;5117023;27;20209;-71
2022/01/31 06:55:44;;;;;;;13.57;5.30;;;4.50;77.40;;;;;;5122836;27;20190;-71
2022/01/31 06:58:12;;;;;;;10.85;5.63;;;4.50;78.10;;;;;;5119402;27;20191;-71
2022/01/31 07:00:40;;;;;;;9.18;4.88;;;4.40;78.70;;;;;;5116179;27;20226;-71
2022/01/31 07:03:13;;;;;;;9.30;5.05;;;4.40;78.10;;;;;;5115190;27;20216;-71
2022/01/31 07:05:43;;;;;;;11.77;4.35;;;4.40;78.10;;;;;;5119754;27;20218;-71
2022/01/31 07:08:11;;;;;;;8.88;4.82;;;4.40;78.30;;;;;;5116469;27;20209;-71
2022/01/31 07:10:40;;;;;;;9.70;4.80;;;4.40;78.20;;;;;;5114014;27;20205;-71
2022/01/31 07:13:13;;;;;;;7.28;4.57;;;4.50;78.00;;;;;;5111627;27;20244;-72
2022/01/31 07:15:41;;;;;;;9.20;4.43;;;4.50;78.40;;;;;;5117069;27;20260;-71
2022/01/31 07:18:09;;;;;;;6.38;3.63;;;4.50;78.10;;;;;;5101617;27;20210;-71
2022/01/31 07:20:40;;;;;;;6.82;3.95;;;4.50;78.30;;;;;;5120246;27;20243;-72
2022/01/31 07:23:15;;;;;;;5.35;3.60;;;4.50;78.30;;;;;;5110093;27;20707;-71
2022/01/31 07:25:44;;;;;;;7.88;4.40;;;4.50;78.80;;;;;;5116250;27;20305;-70
2022/01/31 07:28:16;;;;;;;6.65;3.63;;;4.50;78.60;;;;;;5115464;27;20194;-75
2022/01/31 07:30:47;;;;;;;7.40;4.18;;;4.50;78.30;;;;;;5117061;27;20833;-74
2022/01/31 07:33:16;;;;;;;5.07;3.40;;;4.40;78.70;;;;;;5097513;27;20206;-73
2022/01/31 07:35:46;;;;;;;8.50;4.90;;;4.50;78.70;;;;;;5115623;27;20412;-72
2022/01/31 07:38:16;;;;;;;5.85;3.60;;;4.40;79.20;;;;;;5114964;27;20704;-70
2022/01/31 07:40:45;;;;;;;8.35;3.50;;;4.50;78.90;;;;;;5116066;27;20198;-70
2022/01/31 07:43:13;;;;;;;5.03;2.90;;;4.40;79.50;;;;;;5112053;27;20239;-72
2022/01/31 07:45:41;;;;;;;4.93;2.90;;;4.50;79.20;;;;;;5098234;28;20786;-70
2022/01/31 07:48:09;;;;;;;4.47;3.05;;;4.50;79.90;;;;;;5114129;27;20682;-71
2022/01/31 07:50:37;;;;;;;5.18;3.15;;;4.50;79.90;;;;;;5115275;27;20206;-73
2022/01/31 07:53:05;;;;;;;5.43;3.00;;;4.50;80.30;;;;;;5113788;27;20202;-72
2022/01/31 07:55:35;;;;;;;5.60;2.80;;;4.50;80.60;;;;;;5098892;27;20202;-73
2022/01/31 07:58:03;;;;;;;4.90;2.55;;;4.50;80.20;;;;;;5112855;27;20225;-74
2022/01/31 08:00:48;;;;;;;4.75;3.00;;;4.60;80.20;;;;;;5103780;27;20225;-73
2022/01/31 08:03:16;;;;;;;5.70;3.22;;;4.70;80.10;;;;;;5112475;27;20228;-70
2022/01/31 08:05:44;;;;;;;8.13;3.47;;;4.70;80.70;;;;;;5098952;27;20216;-71
2022/01/31 08:08:12;;;;;;;4.72;3.30;;;4.70;80.00;;;;;;5116894;27;20229;-72
2022/01/31 08:10:42;;;;;;;5.15;3.00;;;4.80;80.50;;;;;;5112813;27;20267;-71
2022/01/31 08:13:10;;;;;;;4.90;3.30;;;4.80;81.20;;;;;;5114803;27;20201;-74
2022/01/31 08:15:47;;;;;;;6.25;3.30;;;4.80;80.60;;;;;;5117190;27;20252;-72
2022/01/31 08:18:16;;;;;;;7.53;3.22;;;4.80;80.70;;;;;;5118158;27;20205;-70
2022/01/31 08:20:45;;;;;;;5.35;3.28;;;4.90;80.40;;;;;;5113579;27;20194;-71
2022/01/31 08:23:13;;;;;;;5.43;3.38;;;4.90;81.00;;;;;;5098272;27;20227;-71
2022/01/31 08:25:47;;;;;;;6.93;3.22;;;5.00;80.60;;;;;;5117396;27;20220;-72
2022/01/31 08:28:16;;;;;;;6.05;3.40;;;5.00;80.70;;;;;;5116374;27;20202;-72
2022/01/31 08:30:50;;;;;;;5.90;2.90;;;5.10;80.70;;;;;;5116087;27;20871;-73
2022/01/31 08:33:33;;;;;;;4.97;3.28;;;5.10;80.50;;;;;;5097601;27;20274;-72
2022/01/31 08:36:02;;;;;;;5.68;2.90;;;5.20;80.30;;;;;;5113565;27;20232;-72
2022/01/31 08:38:30;;;;;;;6.35;2.63;;;5.30;80.40;;;;;;5098017;27;20655;-73
2022/01/31 08:41:00;;;;;;;6.63;3.10;;;5.30;80.50;;;;;;5112738;27;20205;-70
2022/01/31 08:43:29;;;;;;;4.72;3.20;;;5.30;80.50;;;;;;5115153;27;20232;-70
2022/01/31 08:45:58;;;;;;;4.63;2.60;;;5.30;80.40;;;;;;5115181;27;20247;-71
2022/01/31 08:48:28;;;;;;;6.13;2.85;;;5.30;81.00;;;;;;5111982;27;20728;-72
2022/01/31 08:50:57;;;;;;;4.00;2.40;;;5.30;80.50;;;;;;5114007;27;20191;-72
2022/01/31 08:53:25;;;;;;;6.53;2.90;;;5.40;80.50;;;;;;5114670;27;20250;-73
2022/01/31 08:55:55;;;;;;;5.63;2.95;;;5.40;80.60;;;;;;5116393;27;20205;-70
2022/01/31 08:58:25;;;;;;;4.93;2.70;;;5.40;80.60;;;;;;5111561;27;20198;-69
2022/01/31 09:01:00;;;;;;;4.60;2.50;;;5.50;80.40;;;;;;5114410;27;20305;-72
2022/01/31 09:06:18;;;;;;;5.35;3.20;;;5.50;80.80;;;;;;5101196;27;20249;-71
2022/01/31 09:08:47;;;;;;;5.85;2.90;;;5.50;80.60;;;;;;5095537;27;20246;-73
2022/01/31 09:11:15;;;;;;;5.05;2.42;;;5.50;81.00;;;;;;5096501;27;20220;-72
2022/01/31 09:13:44;;;;;;;4.88;2.50;;;5.60;80.70;;;;;;5112098;27;20207;-71
2022/01/31 09:16:12;;;;;;;4.35;2.63;;;5.60;80.70;;;;;;5114724;27;20344;-71
2022/01/31 09:18:41;;;;;;;6.47;2.30;;;5.60;80.60;;;;;;5099561;27;20297;-71
2022/01/31 09:21:09;;;;;;;8.20;2.97;;;5.60;80.60;;;;;;5115324;27;20206;-71
2022/01/31 09:23:38;;;;;;;6.15;2.38;;;5.60;80.80;;;;;;5116254;27;20202;-71
2022/01/31 09:26:06;;;;;;;4.68;2.78;;;5.60;81.00;;;;;;5116735;27;20221;-71
2022/01/31 09:28:36;;;;;;;4.90;2.70;;;5.70;80.90;;;;;;5116760;27;20206;-71
2022/01/31 09:31:05;;;;;;;9.10;2.72;;;5.70;80.70;;;;;;5114593;27;20225;-71
2022/01/31 09:33:33;;;;;;;5.30;2.60;;;5.70;80.80;;;;;;5111321;27;20198;-71
2022/01/31 09:36:01;;;;;;;5.30;2.30;;;5.70;80.80;;;;;;5116617;27;20272;-71
2022/01/31 09:38:29;;;;;;;4.20;2.53;;;5.80;81.00;;;;;;5113399;27;20639;-72
2022/01/31 09:40:57;;;;;;;4.47;2.90;;;5.80;80.80;;;;;;5101198;28;20215;-72
2022/01/31 09:43:51;;;;;;;5.15;2.60;;;5.90;80.60;;;;;;5096905;27;20206;-71
2022/01/31 09:49:01;;;;;;;6.75;2.60;;;5.80;80.70;;;;;;5099707;27;20217;-72
2022/01/31 09:51:30;;;;;;;5.47;2.30;;;5.90;80.70;;;;;;5095879;28;20210;-72
2022/01/31 09:54:01;;;;;;;4.70;2.60;;;5.90;80.80;;;;;;5112837;27;20207;-72
2022/01/31 09:56:32;;;;;;;5.15;2.55;;;5.90;80.80;;;;;;5112825;28;20473;-73
2022/01/31 09:59:02;;;;;;;5.68;2.53;;;5.90;80.70;;;;;;5114730;27;20193;-71
2022/01/31 10:01:34;;;;;;;10.70;2.90;;;5.90;80.70;;;;;;5111517;28;20229;-70
2022/01/31 10:04:07;;;;;;;5.88;3.22;;;5.90;80.70;;;;;;5094104;28;20723;-73
2022/01/31 10:06:37;;;;;;;4.90;2.13;;;5.90;80.70;;;;;;5115479;27;20245;-73
2022/01/31 10:09:07;;;;;;;5.35;2.97;;;5.90;80.70;;;;;;5115058;27;20252;-70
2022/01/31 10:11:45;;;;;;;5.13;2.22;;;5.90;80.70;;;;;;5117884;27;20702;-71
2022/01/31 10:17:09;;;;;;;5.45;2.65;;;6.00;80.70;;;;;;5097476;27;20213;-71
2022/01/31 10:19:51;;;;;;;7.15;2.88;;;6.00;80.80;;;;;;5114312;27;20210;-71
2022/01/31 10:22:21;;;;;;;4.78;2.75;;;5.90;81.10;;;;;;5099727;27;20202;-72
2022/01/31 10:24:51;;;;;;;4.40;2.35;;;6.00;80.80;;;;;;5118266;27;21023;-71
2022/01/31 10:27:22;;;;;;;6.45;2.88;;;6.00;80.80;;;;;;5120321;27;20234;-71
2022/01/31 10:29:52;;;;;;;6.28;2.40;;;6.00;80.80;;;;;;5119163;27;20678;-71
2022/01/31 10:32:27;;;;;;;5.85;2.17;;;6.00;80.80;;;;;;5113781;27;20243;-72
2022/01/31 10:34:57;;;;;;;6.38;2.13;;;6.00;80.70;;;;;;5111141;27;20201;-71
2022/01/31 10:37:28;;;;;;;5.32;2.15;;;6.00;80.80;;;;;;5114760;27;20218;-71
2022/01/31 10:45:44;;;;;;;5.28;2.10;;;6.10;80.80;;;;;;5117165;27;20234;-72
2022/01/31 10:54:16;;;;;;;6.38;2.05;;;6.10;81.10;;;;;;5116132;27;20626;-72
2022/01/31 10:56:46;;;;;;;4.90;2.15;;;6.10;80.80;;;;;;5116485;27;20209;-72
2022/01/31 10:59:16;;;;;;;5.50;2.33;;;6.10;80.80;;;;;;5116118;27;20251;-71
2022/01/31 11:01:54;;;;;;;5.90;2.35;;;6.10;80.80;;;;;;5117733;27;20225;-72
2022/01/31 11:04:35;;;;;;;7.97;2.13;;;6.10;80.80;;;;;;5100485;27;20203;-72
2022/01/31 11:07:08;;;;;;;7.22;2.20;;;6.10;81.00;;;;;;5097634;27;20229;-72
2022/01/31 11:09:36;;;;;;;7.10;2.10;;;6.10;81.10;;;;;;5097508;27;20875;-72
2022/01/31 11:12:06;;;;;;;6.60;2.58;;;6.20;80.80;;;;;;5116609;27;20202;-71
2022/01/31 11:14:36;;;;;;;3.85;1.95;;;6.20;80.70;;;;;;5111257;27;20203;-72
2022/01/31 11:17:10;;;;;;;4.57;2.28;;;6.20;80.60;;;;;;5108496;27;20221;-72
2022/01/31 11:19:40;;;;;;;3.63;1.80;;;6.20;80.70;;;;;;5110842;27;20208;-71
2022/01/31 11:22:11;;;;;;;6.22;2.35;;;6.20;80.80;;;;;;5108409;27;21295;-72
2022/01/31 11:25:02;;;;;;;4.28;2.33;;;6.20;80.60;;;;;;5102465;27;20652;-72
2022/01/31 11:27:31;;;;;;;5.35;2.25;;;6.20;80.90;;;;;;5115174;27;20210;-72
2022/01/31 11:30:02;;;;;;;7.57;1.98;;;6.20;81.00;;;;;;5111606;27;20869;-72
2022/01/31 11:32:30;;;;;;;8.10;2.58;;;6.20;81.00;;;;;;5111532;27;20222;-72
2022/01/31 11:35:00;;;;;;;4.63;2.13;;;6.30;80.70;;;;;;5099346;27;20214;-71
2022/01/31 11:37:28;;;;;;;5.45;2.03;;;6.20;80.90;;;;;;5095551;27;20252;-72
2022/01/31 11:39:59;;;;;;;5.88;1.67;;;6.30;80.90;;;;;;5099873;27;20255;-71
2022/01/31 11:42:29;;;;;;;4.25;1.85;;;6.40;80.70;;;;;;5113507;27;20205;-71
2022/01/31 11:45:04;;;;;;;4.55;1.83;;;6.30;80.80;;;;;;5116080;27;20202;-71
2022/01/31 11:47:33;;;;;;;3.90;1.70;;;6.40;80.80;;;;;;5115475;27;20290;-72
2022/01/31 11:50:06;;;;;;;4.38;1.98;;;6.40;80.70;;;;;;5113475;27;20191;-72
2022/01/31 11:52:46;;;;;;;4.18;1.80;;;6.50;80.50;;;;;;5112300;27;20194;-72
2022/01/31 11:55:18;;;;;;;4.65;2.00;;;6.40;80.60;;;;;;5115069;27;20260;-72
2022/01/31 11:57:47;;;;;;;3.78;1.90;;;6.40;80.70;;;;;;5114253;27;20217;-72
2022/01/31 12:00:17;;;;;;;5.70;1.77;;;6.40;80.80;;;;;;5097217;27;20756;-72
2022/01/31 12:02:47;;;;;;;5.13;2.70;;;6.30;81.00;;;;;;5114025;27;20274;-72
2022/01/31 12:05:20;;;;;;;6.80;2.40;;;6.30;80.80;;;;;;5116171;27;20207;-71
2022/01/31 12:07:59;;;;;;;3.42;1.75;;;6.20;81.00;;;;;;5115449;27;20328;-72
2022/01/31 12:10:33;;;;;;;6.90;2.08;;;6.20;81.20;;;;;;5100950;27;20266;-71
2022/01/31 12:13:13;;;;;;;3.63;1.70;;;6.20;81.00;;;;;;5113906;27;20333;-72
2022/01/31 12:16:00;;;;;;;4.85;1.95;;;6.20;81.00;;;;;;5116400;27;20238;-72
2022/01/31 12:24:27;;;;;;;8.25;1.95;;;6.20;81.00;;;;;;5117280;27;20193;-71
2022/01/31 12:26:58;;;;;;;3.30;1.48;;;6.10;81.40;;;;;;5112014;27;20269;-71
2022/01/31 12:29:29;;;;;;;3.50;1.70;;;6.10;81.10;;;;;;5115020;27;20201;-71
2022/01/31 12:31:59;;;;;;;6.18;2.40;;;6.10;81.50;;;;;;5098365;27;20230;-71
2022/01/31 12:34:39;;;;;;;5.63;1.88;;;6.10;81.50;;;;;;5113796;27;20686;-71
2022/01/31 12:37:33;;;;;;;3.42;1.67;;;6.00;81.60;;;;;;5115062;27;20222;-71
2022/01/31 12:40:06;;;;;;;4.63;1.85;;;6.10;81.50;;;;;;5119742;27;20225;-71
2022/01/31 12:43:09;;;;;;;5.22;1.55;;;6.10;81.40;;;;;;5113535;27;21513;-71
2022/01/31 12:46:07;;;;;;;3.20;1.30;;;6.10;81.40;;;;;;5098226;27;20278;-71
2022/01/31 12:48:36;;;;;;;3.75;1.30;;;6.10;81.60;;;;;;5117111;27;20222;-71
2022/01/31 12:51:07;;;;;;;2.70;1.05;;;6.10;81.50;;;;;;5118223;27;20198;-70
2022/01/31 12:53:52;;;;;;;3.35;1.50;;;6.10;81.60;;;;;;5114050;27;20229;-71
2022/01/31 12:56:26;;;;;;;5.25;1.60;;;6.00;81.60;;;;;;5116551;27;20274;-71
2022/01/31 12:59:05;;;;;;;3.83;1.30;;;6.00;82.00;;;;;;5115589;27;20193;-71
2022/01/31 13:01:36;;;;;;;3.22;1.35;;;5.90;82.00;;;;;;5114115;27;20226;-70
2022/01/31 13:04:06;;;;;;;3.63;1.75;;;5.90;81.80;;;;;;5109765;27;20281;-71
2022/01/31 13:06:37;;;;;;;4.05;1.65;;;6.00;81.70;;;;;;5113539;27;20226;-71
2022/01/31 13:09:12;;;;;;;3.22;1.30;;;5.90;82.00;;;;;;5099761;27;20233;-71
2022/01/31 13:11:44;;;;;;;3.38;1.40;;;5.90;82.00;;;;;;5116537;27;20209;-70
2022/01/31 13:14:15;;;;;;;3.92;1.70;;;5.80;82.60;;;;;;5113803;27;20718;-71
2022/01/31 13:17:08;;;;;;;2.53;1.35;;;5.90;82.20;;;;;;5094846;27;20317;-70
2022/01/31 13:19:39;;;;;;;5.18;1.33;;;5.90;82.10;;;;;;5116346;27;20199;-68
2022/01/31 13:22:12;;;;;;;4.35;1.55;;;5.90;82.20;;;;;;5114453;27;20210;-71
2022/01/31 13:24:43;;;;;;;6.22;1.45;;;6.00;82.10;;;;;;5103473;27;20254;-72
2022/01/31 13:27:14;;;;;;;3.08;1.30;;;5.90;82.10;;;;;;5118235;27;20240;-72
2022/01/31 13:30:04;;;;;;;2.20;1.08;;;6.00;82.00;;;;;;5116846;27;20222;-73
2022/01/31 13:32:34;;;;;;;2.72;1.33;;;5.90;82.20;;;;;;5097845;27;21035;-70
2022/01/31 13:35:08;;;;;;;2.40;1.15;;;6.00;82.10;;;;;;5094919;27;20935;-71